createdAt,value
2019-03-12T06:10:55.854Z,23.20
2019-03-12T06:13:27.529Z,24.70
2019-03-12T06:15:59.560Z,23.47
2019-03-12T06:18:31.838Z,22.67
2019-03-12T06:21:03.706Z,24.07
2019-03-12T06:23:35.314Z,21.37
2019-03-12T06:26:07.408Z,21.70
2019-03-12T06:28:41.932Z,22.02
2019-03-12T06:31:17.569Z,23.35
2019-03-12T06:33:48.200Z,22.22
2019-03-12T06:36:21.572Z,22.80
2019-03-12T06:38:55.943Z,21.35
2019-03-12T06:41:29.767Z,22.40
2019-03-12T06:44:03.025Z,22.22
2019-03-12T06:46:56.931Z,21.12
2019-03-12T06:49:32.151Z,22.22
2019-03-12T06:52:05.971Z,20.65
2019-03-12T06:54:42.155Z,19.42
2019-03-12T06:57:15.667Z,20.45
2019-03-12T06:59:48.670Z,19.60
2019-03-12T07:02:24.912Z,23.47
2019-03-12T07:04:58.205Z,20.48
2019-03-12T07:07:31.923Z,21.40
2019-03-12T07:10:05.407Z,20.32
2019-03-12T07:12:38.163Z,21.02
2019-03-12T07:15:13.055Z,21.23
2019-03-12T07:17:49.736Z,21.33
2019-03-12T07:20:22.852Z,20.55
2019-03-12T07:22:56.239Z,26.20
2019-03-12T07:25:29.473Z,24.92
2019-03-12T07:28:04.241Z,21.75
2019-03-12T07:30:37.377Z,22.52
2019-03-12T07:33:10.890Z,22.62
2019-03-12T07:35:43.811Z,23.38
2019-03-12T07:38:16.179Z,24.23
2019-03-12T07:40:49.121Z,23.70
2019-03-12T07:43:21.161Z,26.05
2019-03-12T07:45:54.174Z,25.00
2019-03-12T07:48:32.422Z,25.55
2019-03-12T07:51:04.022Z,26.37
2019-03-12T07:53:35.904Z,26.07
2019-03-12T07:56:12.325Z,25.60
2019-03-12T07:58:45.303Z,25.05
2019-03-12T08:01:37.716Z,26.23
2019-03-12T08:04:11.757Z,26.35
2019-03-12T08:06:44.880Z,26.07
2019-03-12T08:09:17.745Z,25.32
2019-03-12T08:11:51.371Z,26.40
2019-03-12T08:14:26.894Z,24.85
2019-03-12T08:16:59.955Z,25.70
2019-03-12T08:19:32.956Z,27.95
2019-03-12T08:22:06.051Z,27.65
2019-03-12T08:24:39.052Z,27.45
2019-03-12T08:27:12.651Z,29.30
2019-03-12T08:29:45.931Z,26.65
2019-03-12T08:32:20.061Z,27.32
2019-03-12T08:34:53.447Z,26.60
2019-03-12T08:37:27.141Z,25.40
2019-03-12T08:40:00.435Z,25.12
2019-03-12T08:42:33.935Z,25.17
2019-03-12T08:45:11.110Z,25.70
2019-03-12T08:47:43.573Z,26.05
2019-03-12T08:50:19.194Z,25.92
2019-03-12T08:52:52.054Z,26.07
2019-03-12T08:55:26.777Z,26.25
2019-03-12T08:58:09.291Z,26.65
2019-03-12T09:00:42.495Z,27.65
2019-03-12T09:03:15.872Z,26.48
2019-03-12T09:05:49.187Z,26.48
2019-03-12T09:08:22.789Z,28.17
2019-03-12T09:10:56.077Z,27.48
2019-03-12T09:13:29.187Z,27.10
2019-03-12T09:16:03.066Z,26.40
2019-03-12T09:18:36.603Z,27.20
2019-03-12T09:21:09.839Z,28.15
2019-03-12T09:23:43.204Z,27.13
2019-03-12T09:26:16.247Z,27.37
2019-03-12T09:28:49.758Z,28.23
2019-03-12T09:31:22.785Z,28.65
2019-03-12T09:33:56.465Z,27.35
2019-03-12T09:36:29.636Z,27.32
2019-03-12T09:39:03.158Z,26.23
2019-03-12T09:41:38.457Z,24.82
2019-03-12T09:44:12.043Z,25.30
2019-03-12T09:46:45.078Z,24.98
2019-03-12T09:49:16.953Z,25.62
2019-03-12T09:51:52.935Z,24.10
2019-03-12T09:54:26.769Z,22.62
2019-03-12T09:56:59.829Z,21.85
2019-03-12T09:59:33.455Z,22.13
2019-03-12T10:02:06.908Z,19.90
2019-03-12T10:04:42.477Z,18.98
2019-03-12T10:07:15.559Z,19.65
2019-03-12T10:09:49.367Z,19.12
2019-03-12T10:12:24.995Z,21.87
2019-03-12T10:14:58.497Z,19.30
2019-03-12T10:17:33.039Z,21.45
2019-03-12T10:20:07.145Z,22.32
2019-03-12T10:22:40.271Z,21.23
2019-03-12T10:25:13.337Z,22.48
2019-03-12T10:27:46.378Z,20.10
2019-03-12T10:30:20.129Z,21.10
2019-03-12T10:32:53.292Z,21.75
2019-03-12T10:35:26.690Z,22.95
2019-03-12T10:38:03.920Z,20.57
2019-03-12T10:40:37.818Z,23.13
2019-03-12T10:43:11.210Z,22.13
2019-03-12T10:45:44.521Z,21.60
2019-03-12T10:48:17.806Z,22.58
2019-03-12T10:50:50.533Z,23.77
2019-03-12T10:53:22.337Z,24.23
2019-03-12T10:55:54.616Z,22.95
2019-03-12T10:58:26.453Z,22.27
2019-03-12T11:00:58.346Z,22.82
2019-03-12T11:03:31.044Z,21.60
2019-03-12T11:06:03.293Z,22.17
2019-03-12T11:08:35.214Z,22.48
2019-03-12T11:11:11.120Z,31.20
2019-03-12T11:13:42.882Z,24.43
2019-03-12T11:16:15.107Z,23.00
2019-03-12T11:18:50.552Z,23.10
2019-03-12T11:21:22.672Z,24.07
2019-03-12T11:23:54.933Z,24.37
2019-03-12T11:26:28.735Z,23.57
2019-03-12T11:29:00.634Z,23.40
2019-03-12T11:31:32.574Z,23.32
2019-03-12T11:34:04.649Z,27.05
2019-03-12T11:36:36.588Z,27.22
2019-03-12T11:39:08.970Z,26.12
2019-03-12T11:41:41.020Z,24.95
2019-03-12T11:44:12.985Z,25.23
2019-03-12T11:46:46.111Z,25.68
2019-03-12T11:49:18.272Z,25.65
2019-03-12T11:51:50.258Z,27.25
2019-03-12T11:54:22.223Z,27.75
2019-03-12T11:56:54.265Z,27.13
2019-03-12T11:59:26.169Z,27.77
2019-03-12T12:01:57.997Z,30.92
2019-03-12T12:04:29.946Z,29.85
2019-03-12T12:07:01.853Z,30.48
2019-03-12T12:09:33.605Z,30.85
2019-03-12T12:12:05.816Z,31.35
2019-03-12T12:14:37.625Z,32.88
2019-03-12T12:17:09.288Z,33.25
2019-03-12T12:19:42.091Z,33.25
2019-03-12T12:22:13.944Z,34.05
2019-03-12T12:24:45.597Z,33.30
2019-03-12T12:27:18.148Z,34.75
2019-03-12T12:29:50.122Z,36.10
2019-03-12T12:32:22.264Z,36.10
2019-03-12T12:34:54.278Z,35.10
2019-03-12T12:37:26.131Z,35.58
2019-03-12T12:39:57.913Z,35.78
2019-03-12T12:42:29.807Z,36.08
2019-03-12T12:45:01.510Z,35.75
2019-03-12T12:47:33.357Z,37.40
2019-03-12T12:50:07.280Z,35.68
2019-03-12T12:52:39.068Z,37.30
2019-03-12T12:55:14.645Z,36.20
2019-03-12T12:57:46.717Z,36.58
2019-03-12T13:00:22.447Z,38.08
2019-03-12T13:02:54.368Z,39.78
2019-03-12T13:05:27.782Z,36.42
2019-03-12T13:07:59.538Z,37.38
2019-03-12T13:10:33.058Z,37.42
2019-03-12T13:13:05.078Z,36.85
2019-03-12T13:15:36.927Z,39.48
2019-03-12T13:18:18.215Z,38.35
2019-03-12T13:20:50.623Z,39.73
2019-03-12T13:23:22.178Z,38.45
2019-03-12T13:25:54.293Z,40.20
2019-03-12T13:28:45.174Z,38.45
2019-03-12T13:31:17.175Z,37.78
2019-03-12T13:33:48.999Z,38.53
2019-03-12T13:36:20.984Z,36.65
2019-03-12T13:38:53.110Z,36.77
2019-03-12T13:41:25.009Z,36.53
2019-03-12T13:43:56.873Z,36.08
2019-03-12T13:46:29.297Z,34.65
2019-03-12T13:49:01.192Z,36.75
2019-03-12T13:51:32.949Z,34.18
2019-03-12T13:54:05.690Z,35.23
2019-03-12T13:56:37.397Z,33.60
2019-03-12T13:59:09.514Z,33.50
2019-03-12T14:01:41.702Z,36.38
2019-03-12T14:04:13.738Z,34.67
2019-03-12T14:06:45.754Z,35.28
2019-03-12T14:09:32.916Z,35.10
2019-03-12T14:12:04.688Z,35.98
2019-03-12T14:14:36.780Z,36.65
2019-03-12T14:17:08.747Z,36.25
2019-03-12T14:19:40.475Z,37.83
2019-03-12T14:22:13.414Z,39.27
2019-03-12T14:24:45.401Z,39.55
2019-03-12T14:27:17.358Z,39.00
2019-03-12T14:29:52.536Z,39.25
2019-03-12T14:32:25.563Z,42.03
2019-03-12T14:34:57.949Z,41.65
2019-03-12T14:37:35.914Z,43.00
2019-03-12T14:40:08.082Z,42.53
2019-03-12T14:42:40.306Z,44.48
2019-03-12T14:45:13.927Z,43.20
2019-03-12T14:47:48.933Z,44.18
2019-03-12T14:50:21.595Z,43.80
2019-03-12T14:52:57.171Z,44.63
2019-03-12T14:55:30.216Z,44.55
2019-03-12T14:58:01.861Z,45.65
2019-03-12T15:00:33.960Z,44.90
2019-03-12T15:03:26.140Z,46.00
2019-03-12T15:06:17.337Z,45.38
2019-03-12T15:08:49.578Z,47.17
2019-03-12T15:11:21.315Z,46.18
2019-03-12T15:13:53.304Z,46.13
2019-03-12T15:16:25.272Z,45.60
2019-03-12T15:18:57.174Z,45.40
2019-03-12T15:21:29.076Z,46.45
2019-03-12T15:24:02.378Z,45.05
2019-03-12T15:26:34.443Z,45.63
2019-03-12T15:29:06.097Z,48.13
2019-03-12T15:31:38.440Z,46.10
2019-03-12T15:34:10.245Z,47.25
2019-03-12T15:36:45.343Z,46.58
2019-03-12T15:39:17.967Z,47.33
2019-03-12T15:41:49.920Z,47.08
2019-03-12T15:44:24.064Z,47.98
2019-03-12T15:46:57.772Z,48.80
2019-03-12T15:49:29.640Z,50.83
2019-03-12T15:52:01.637Z,51.92
2019-03-12T15:54:33.435Z,50.73
2019-03-12T15:57:05.658Z,50.67
2019-03-12T15:59:40.618Z,51.37
2019-03-12T16:02:12.372Z,50.55
2019-03-12T16:04:47.748Z,50.50
2019-03-12T16:07:20.277Z,49.77
2019-03-12T16:10:04.541Z,49.03
2019-03-12T16:12:36.257Z,50.90
2019-03-12T16:15:11.304Z,55.83
2019-03-12T16:17:43.021Z,55.70
2019-03-12T16:20:18.005Z,60.30
2019-03-12T16:22:50.008Z,63.45
2019-03-12T16:25:22.610Z,67.15
2019-03-12T16:27:54.268Z,68.57
2019-03-12T16:30:25.917Z,66.97
2019-03-12T16:32:58.793Z,66.42
2019-03-12T16:35:30.755Z,57.43
2019-03-12T16:38:03.495Z,56.73
2019-03-12T16:40:35.474Z,55.08
2019-03-12T16:43:07.570Z,56.20
2019-03-12T16:45:39.615Z,57.53
2019-03-12T16:48:11.348Z,57.98
2019-03-12T16:50:43.467Z,58.68
2019-03-12T16:53:15.554Z,57.75
2019-03-12T16:55:47.296Z,55.28
2019-03-12T16:58:19.881Z,55.30
2019-03-12T17:00:52.085Z,54.15
2019-03-12T17:03:34.011Z,54.70
2019-03-12T17:06:12.433Z,53.85
2019-03-12T17:08:44.340Z,54.83
2019-03-12T17:11:17.366Z,54.38
2019-03-12T17:13:49.542Z,55.33
2019-03-12T17:16:21.695Z,55.17
2019-03-12T17:18:53.414Z,55.28
2019-03-12T17:21:25.323Z,55.67
2019-03-12T17:24:06.358Z,56.35
2019-03-12T17:26:41.104Z,55.33
2019-03-12T17:29:13.062Z,54.93
2019-03-12T17:31:48.841Z,55.50
2019-03-12T17:34:34.944Z,54.48
2019-03-12T17:36:55.131Z,53.48
2019-03-12T17:39:26.928Z,54.75
2019-03-12T17:42:02.017Z,57.30
2019-03-12T17:44:34.168Z,56.70
2019-03-12T17:47:06.268Z,56.33
2019-03-12T17:49:38.002Z,59.93
2019-03-12T17:52:09.866Z,59.42
2019-03-12T17:54:42.129Z,57.20
2019-03-12T17:57:13.973Z,57.23
2019-03-12T18:00:06.066Z,59.03
2019-03-12T18:02:42.672Z,59.50
2019-03-12T18:05:13.985Z,58.42
2019-03-12T18:07:46.104Z,58.48
2019-03-12T18:10:20.040Z,59.55
2019-03-12T18:12:51.826Z,56.50
2019-03-12T18:15:24.019Z,55.55
2019-03-12T18:17:56.350Z,54.40
2019-03-12T18:20:27.976Z,57.43
2019-03-12T18:23:00.142Z,59.10
2019-03-12T18:25:35.067Z,58.23
2019-03-12T18:28:09.149Z,58.52
2019-03-12T18:30:40.971Z,60.30
2019-03-12T18:33:12.844Z,57.35
2019-03-12T18:35:44.453Z,57.93
2019-03-12T18:38:16.599Z,58.75
2019-03-12T18:40:48.518Z,59.90
2019-03-12T18:43:20.278Z,59.48
2019-03-12T18:45:52.633Z,60.70
2019-03-12T18:48:26.668Z,59.67
2019-03-12T18:50:58.524Z,59.23
2019-03-12T18:53:30.273Z,60.30
2019-03-12T18:56:03.971Z,60.65
2019-03-12T18:58:35.967Z,59.20
2019-03-12T19:01:08.488Z,58.87
2019-03-12T19:03:40.305Z,56.63
2019-03-12T19:06:12.754Z,58.90
2019-03-12T19:08:48.095Z,59.20
2019-03-12T19:11:18.025Z,60.28
2019-03-12T19:13:49.884Z,58.50
2019-03-12T19:16:21.801Z,59.27
2019-03-12T19:18:53.974Z,61.33
2019-03-12T19:21:27.509Z,61.42
2019-03-12T19:23:59.531Z,62.48
2019-03-12T19:26:31.435Z,59.55
2019-03-12T19:29:04.193Z,60.80
2019-03-12T19:31:37.400Z,61.13
2019-03-12T19:34:11.412Z,59.55
2019-03-12T19:36:43.204Z,60.12
2019-03-12T19:39:16.562Z,61.30
2019-03-12T19:41:48.345Z,59.25
2019-03-12T19:44:20.400Z,59.85
2019-03-12T19:46:52.474Z,60.65
2019-03-12T19:49:24.148Z,61.20
2019-03-12T19:51:55.893Z,58.90
2019-03-12T19:54:27.855Z,65.05
2019-03-12T19:56:59.740Z,63.95
2019-03-12T19:59:31.864Z,63.95
2019-03-12T20:02:15.632Z,62.67
2019-03-12T20:04:47.183Z,63.48
2019-03-12T20:07:11.670Z,63.65
2019-03-12T20:09:46.178Z,61.75
2019-03-12T20:12:22.359Z,66.30
2019-03-12T20:15:15.980Z,62.95
2019-03-12T20:17:52.493Z,62.93
2019-03-12T20:20:28.258Z,62.08
2019-03-12T20:23:04.218Z,62.85
2019-03-12T20:25:39.746Z,63.33
2019-03-12T20:28:15.741Z,63.63
2019-03-12T20:30:52.542Z,67.55
2019-03-12T20:33:28.464Z,64.17
2019-03-12T20:36:04.239Z,65.17
2019-03-12T20:38:40.070Z,65.83
2019-03-12T20:41:15.647Z,65.08
2019-03-12T20:43:51.471Z,63.90
2019-03-12T20:46:27.320Z,63.42
2019-03-12T20:49:10.859Z,65.62
2019-03-12T20:51:40.735Z,63.52
2019-03-12T20:54:16.736Z,64.92
2019-03-12T20:56:52.509Z,64.70
2019-03-12T20:59:28.671Z,64.07
2019-03-12T21:02:04.082Z,65.37
2019-03-12T21:04:39.857Z,63.15
2019-03-12T21:07:15.291Z,63.45
2019-03-12T21:09:51.154Z,66.07
2019-03-12T21:12:26.720Z,64.55
2019-03-12T21:15:02.491Z,62.98
2019-03-12T21:17:38.906Z,64.15
2019-03-12T21:20:15.915Z,62.90
2019-03-12T21:22:52.189Z,63.13
2019-03-12T21:25:28.412Z,63.85
2019-03-12T21:28:04.106Z,64.17
2019-03-12T21:30:37.109Z,64.72
2019-03-12T21:33:15.101Z,65.25
2019-03-12T21:35:43.454Z,61.15
2019-03-12T21:38:15.333Z,61.73
2019-03-12T21:40:47.315Z,65.52
2019-03-12T21:43:19.395Z,64.60
2019-03-12T21:45:52.082Z,63.20
2019-03-12T21:48:23.689Z,62.40
2019-03-12T21:50:55.686Z,61.10
2019-03-12T21:53:27.479Z,60.40
2019-03-12T21:55:59.369Z,59.53
2019-03-12T21:58:31.760Z,60.65
2019-03-12T22:01:04.453Z,59.20
2019-03-12T22:03:38.979Z,55.85
2019-03-12T22:06:10.721Z,58.65
2019-03-12T22:08:42.569Z,62.53
2019-03-12T22:11:14.565Z,62.13
2019-03-12T22:13:47.024Z,62.08
2019-03-12T22:16:18.925Z,64.30
2019-03-12T22:18:52.072Z,63.28
2019-03-12T22:21:25.129Z,62.58
2019-03-12T22:23:58.367Z,64.82
2019-03-12T22:26:29.999Z,64.45
2019-03-12T22:29:01.865Z,72.12
2019-03-12T22:31:33.991Z,72.40
2019-03-12T22:34:06.159Z,75.37
2019-03-12T22:36:37.813Z,73.37
2019-03-12T22:39:09.967Z,73.10
2019-03-12T22:41:41.809Z,71.75
2019-03-12T22:44:15.419Z,69.97
2019-03-12T22:46:47.268Z,68.90
2019-03-12T22:49:18.927Z,67.50
2019-03-12T22:51:50.955Z,67.32
2019-03-12T22:54:22.966Z,72.90
2019-03-12T22:56:54.879Z,76.90
2019-03-12T22:59:26.754Z,71.65
2019-03-12T23:01:58.731Z,72.37
2019-03-12T23:04:31.081Z,70.32
2019-03-12T23:07:02.804Z,70.95
2019-03-12T23:09:34.435Z,70.85
2019-03-12T23:12:06.616Z,74.37
2019-03-12T23:14:38.330Z,74.53
2019-03-12T23:17:10.468Z,77.67
2019-03-12T23:19:42.545Z,78.47
2019-03-12T23:22:14.777Z,79.65
2019-03-12T23:24:46.843Z,79.90
2019-03-12T23:27:18.732Z,79.00
2019-03-12T23:29:50.776Z,79.85
2019-03-12T23:32:22.736Z,81.47
2019-03-12T23:34:54.824Z,80.67
2019-03-12T23:37:27.760Z,82.33
2019-03-12T23:39:59.560Z,83.22
2019-03-12T23:42:31.344Z,84.42
2019-03-12T23:45:03.229Z,84.47
2019-03-12T23:47:34.891Z,83.35
2019-03-12T23:50:09.053Z,83.30
2019-03-12T23:52:40.808Z,83.85
2019-03-12T23:55:15.436Z,82.92
2019-03-12T23:57:49.192Z,86.50
